sensor_id;sensor_type;location;lat;lon;timestamp;pressure;altitude;pressure_sealevel;temperature;humidity
21594;BME280;10959;51.328;7.322;2024-03-02T00:01:14;97511.88;;;8.29;63.23
21594;BME280;10959;51.328;7.322;2024-03-02T00:03:42;97501.59;;;8.21;63.33
21594;BME280;10959;51.328;7.322;2024-03-02T00:06:09;97511.03;;;8.18;63.54
21594;BME280;10959;51.328;7.322;2024-03-02T00:08:37;97505.91;;;8.22;62.94
21594;BME280;10959;51.328;7.322;2024-03-02T00:11:04;97508.06;;;8.25;63.34
21594;BME280;10959;51.328;7.322;2024-03-02T00:13:31;97504.84;;;8.23;63.25
21594;BME280;10959;51.328;7.322;2024-03-02T00:15:58;97496.00;;;8.27;62.76
21594;BME280;10959;51.328;7.322;2024-03-02T00:18:26;97509.69;;;8.26;62.71
21594;BME280;10959;51.328;7.322;2024-03-02T00:20:54;97499.44;;;8.23;63.33
21594;BME280;10959;51.328;7.322;2024-03-02T00:23:23;97501.34;;;8.17;63.01
21594;BME280;10959;51.328;7.322;2024-03-02T00:25:53;97491.38;;;8.18;62.98
21594;BME280;10959;51.328;7.322;2024-03-02T00:28:22;97498.34;;;8.19;63.08
21594;BME280;10959;51.328;7.322;2024-03-02T00:30:59;97506.97;;;8.16;63.18
21594;BME280;10959;51.328;7.322;2024-03-02T00:33:27;97499.97;;;8.20;63.07
21594;BME280;10959;51.328;7.322;2024-03-02T00:35:54;97499.97;;;8.20;63.10
21594;BME280;10959;51.328;7.322;2024-03-02T00:38:21;97502.16;;;8.18;62.78
21594;BME280;10959;51.328;7.322;2024-03-02T00:40:48;97497.28;;;8.25;62.85
21594;BME280;10959;51.328;7.322;2024-03-02T00:43:41;97486.25;;;8.11;62.94
21594;BME280;10959;51.328;7.322;2024-03-02T00:46:09;97489.22;;;8.20;62.63
21594;BME280;10959;51.328;7.322;2024-03-02T00:48:36;97483.81;;;8.20;62.58
21594;BME280;10959;51.328;7.322;2024-03-02T00:51:03;97490.84;;;8.21;62.74
21594;BME280;10959;51.328;7.322;2024-03-02T00:53:31;97488.69;;;8.18;62.52
21594;BME280;10959;51.328;7.322;2024-03-02T00:55:58;97485.19;;;8.17;62.49
21594;BME280;10959;51.328;7.322;2024-03-02T00:58:26;97479.25;;;8.20;62.66
21594;BME280;10959;51.328;7.322;2024-03-02T01:00:52;97480.59;;;8.18;62.76
21594;BME280;10959;51.328;7.322;2024-03-02T01:03:19;97470.38;;;8.20;62.64
21594;BME280;10959;51.328;7.322;2024-03-02T01:05:45;97463.91;;;8.21;62.27
21594;BME280;10959;51.328;7.322;2024-03-02T01:08:12;97469.56;;;8.24;62.18
21594;BME280;10959;51.328;7.322;2024-03-02T01:10:38;97458.81;;;8.24;62.35
21594;BME280;10959;51.328;7.322;2024-03-02T01:13:04;97451.50;;;8.20;62.44
21594;BME280;10959;51.328;7.322;2024-03-02T01:15:33;97451.50;;;8.20;62.19
21594;BME280;10959;51.328;7.322;2024-03-02T01:17:59;97453.13;;;8.21;62.41
21594;BME280;10959;51.328;7.322;2024-03-02T01:20:26;97455.81;;;8.26;61.99
21594;BME280;10959;51.328;7.322;2024-03-02T01:22:52;97465.28;;;8.28;62.04
21594;BME280;10959;51.328;7.322;2024-03-02T01:25:19;97471.16;;;8.25;62.13
21594;BME280;10959;51.328;7.322;2024-03-02T01:27:45;97458.50;;;8.26;62.00
21594;BME280;10959;51.328;7.322;2024-03-02T01:30:12;97460.41;;;8.25;61.69
21594;BME280;10959;51.328;7.322;2024-03-02T01:32:39;97450.44;;;8.26;61.89
21594;BME280;10959;51.328;7.322;2024-03-02T01:35:06;97455.81;;;8.26;61.79
21594;BME280;10959;51.328;7.322;2024-03-02T01:37:34;97461.22;;;8.26;61.65
21594;BME280;10959;51.328;7.322;2024-03-02T01:40:00;97453.69;;;8.18;61.91
21594;BME280;10959;51.328;7.322;2024-03-02T01:42:27;97448.81;;;8.25;62.18
21594;BME280;10959;51.328;7.322;2024-03-02T01:44:54;97451.50;;;8.25;61.92
21594;BME280;10959;51.328;7.322;2024-03-02T01:47:20;97455.81;;;8.26;61.86
21594;BME280;10959;51.328;7.322;2024-03-02T01:49:48;97451.00;;;8.33;61.68
21594;BME280;10959;51.328;7.322;2024-03-02T01:52:15;97450.44;;;8.26;61.68
21594;BME280;10959;51.328;7.322;2024-03-02T01:54:42;97453.13;;;8.26;61.50
21594;BME280;10959;51.328;7.322;2024-03-02T01:57:09;97449.38;;;8.27;61.79
21594;BME280;10959;51.328;7.322;2024-03-02T01:59:36;97444.00;;;8.32;61.47
21594;BME280;10959;51.328;7.322;2024-03-02T02:02:02;97440.78;;;8.30;61.70
21594;BME280;10959;51.328;7.322;2024-03-02T02:04:29;97440.78;;;8.30;61.39
21594;BME280;10959;51.328;7.322;2024-03-02T02:06:57;97439.16;;;8.29;61.60
21594;BME280;10959;51.328;7.322;2024-03-02T02:09:23;97445.06;;;8.26;61.54
21594;BME280;10959;51.328;7.322;2024-03-02T02:11:50;97433.22;;;8.27;61.31
21594;BME280;10959;51.328;7.322;2024-03-02T02:14:17;97438.59;;;8.27;61.56
21594;BME280;10959;51.328;7.322;2024-03-02T02:16:44;97434.59;;;8.30;61.62
21594;BME280;10959;51.328;7.322;2024-03-02T02:19:11;97439.69;;;8.31;61.24
21594;BME280;10959;51.328;7.322;2024-03-02T02:21:42;97437.25;;;8.24;61.50
21594;BME280;10959;51.328;7.322;2024-03-02T02:24:08;97431.38;;;8.27;61.36
21594;BME280;10959;51.328;7.322;2024-03-02T02:26:34;97427.56;;;8.28;61.19
21594;BME280;10959;51.328;7.322;2024-03-02T02:29:01;97423.00;;;8.29;61.38
21594;BME280;10959;51.328;7.322;2024-03-02T02:31:36;97424.03;;;8.23;61.16
21594;BME280;10959;51.328;7.322;2024-03-02T02:34:03;97424.03;;;8.23;61.24
21594;BME280;10959;51.328;7.322;2024-03-02T02:36:29;97436.44;;;8.24;61.30
21594;BME280;10959;51.328;7.322;2024-03-02T02:38:57;97427.81;;;8.27;61.07
21594;BME280;10959;51.328;7.322;2024-03-02T02:41:26;97424.34;;;8.32;61.28
21594;BME280;10959;51.328;7.322;2024-03-02T02:43:52;97432.16;;;8.33;61.09
21594;BME280;10959;51.328;7.322;2024-03-02T02:46:18;97425.16;;;8.32;60.96
21594;BME280;10959;51.328;7.322;2024-03-02T02:48:45;97431.59;;;8.31;61.19
21594;BME280;10959;51.328;7.322;2024-03-02T02:51:12;97420.81;;;8.31;61.06
21594;BME280;10959;51.328;7.322;2024-03-02T02:53:38;97418.94;;;8.32;60.93
21594;BME280;10959;51.328;7.322;2024-03-02T02:56:07;97418.94;;;8.32;60.90
21594;BME280;10959;51.328;7.322;2024-03-02T02:58:33;97410.59;;;8.28;61.00
21594;BME280;10959;51.328;7.322;2024-03-02T03:01:00;97421.63;;;8.32;60.77
21594;BME280;10959;51.328;7.322;2024-03-02T03:03:27;97420.28;;;8.34;61.02
21594;BME280;10959;51.328;7.322;2024-03-02T03:05:53;97418.44;;;8.30;60.95
21594;BME280;10959;51.328;7.322;2024-03-02T03:08:19;97418.94;;;8.26;60.85
21594;BME280;10959;51.328;7.322;2024-03-02T03:10:48;97417.59;;;8.29;61.23
21594;BME280;10959;51.328;7.322;2024-03-02T03:13:16;97419.22;;;8.30;61.27
21594;BME280;10959;51.328;7.322;2024-03-02T03:15:43;97417.34;;;8.36;60.88
21594;BME280;10959;51.328;7.322;2024-03-02T03:18:09;97412.75;;;8.36;60.85
21594;BME280;10959;51.328;7.322;2024-03-02T03:20:36;97412.22;;;8.39;60.85
21594;BME280;10959;51.328;7.322;2024-03-02T03:23:03;97410.59;;;8.38;60.73
21594;BME280;10959;51.328;7.322;2024-03-02T03:25:30;97415.97;;;8.38;61.05
21594;BME280;10959;51.328;7.322;2024-03-02T03:27:56;97417.59;;;8.39;60.63
21594;BME280;10959;51.328;7.322;2024-03-02T03:30:24;97410.59;;;8.38;60.74
21594;BME280;10959;51.328;7.322;2024-03-02T03:32:51;97423.25;;;8.38;60.63
21594;BME280;10959;51.328;7.322;2024-03-02T03:35:17;97427.03;;;8.42;60.50
21594;BME280;10959;51.328;7.322;2024-03-02T03:37:44;97421.13;;;8.40;60.44
21594;BME280;10959;51.328;7.322;2024-03-02T03:40:11;97420.28;;;8.44;60.70
21594;BME280;10959;51.328;7.322;2024-03-02T03:42:39;97421.38;;;8.38;60.85
21594;BME280;10959;51.328;7.322;2024-03-02T03:45:06;97425.97;;;8.43;60.54
21594;BME280;10959;51.328;7.322;2024-03-02T03:47:34;97434.28;;;8.46;60.52
21594;BME280;10959;51.328;7.322;2024-03-02T03:50:01;97434.59;;;8.40;60.45
21594;BME280;10959;51.328;7.322;2024-03-02T03:52:32;97433.22;;;8.42;60.36
21594;BME280;10959;51.328;7.322;2024-03-02T03:54:58;97432.13;;;8.43;60.32
21594;BME280;10959;51.328;7.322;2024-03-02T03:57:25;97428.34;;;8.49;60.45
21594;BME280;10959;51.328;7.322;2024-03-02T03:59:51;97427.81;;;8.52;60.19
21594;BME280;10959;51.328;7.322;2024-03-02T04:02:18;97424.59;;;8.50;60.14
21594;BME280;10959;51.328;7.322;2024-03-02T04:04:46;97430.78;;;8.51;60.68
21594;BME280;10959;51.328;7.322;2024-03-02T04:07:12;97435.34;;;8.50;60.82
21594;BME280;10959;51.328;7.322;2024-03-02T04:09:38;97429.97;;;8.50;60.89
21594;BME280;10959;51.328;7.322;2024-03-02T04:12:05;97439.13;;;8.49;60.91
21594;BME280;10959;51.328;7.322;2024-03-02T04:14:32;97435.34;;;8.50;60.70
21594;BME280;10959;51.328;7.322;2024-03-02T04:16:58;97432.94;;;8.49;60.51
21594;BME280;10959;51.328;7.322;2024-03-02T04:19:25;97435.88;;;8.52;60.41
21594;BME280;10959;51.328;7.322;2024-03-02T04:21:53;97437.25;;;8.45;60.94
21594;BME280;10959;51.328;7.322;2024-03-02T04:24:19;97444.28;;;8.46;60.70
21594;BME280;10959;51.328;7.322;2024-03-02T04:26:46;97446.69;;;8.47;60.94
21594;BME280;10959;51.328;7.322;2024-03-02T04:29:12;97451.78;;;8.44;60.75
21594;BME280;10959;51.328;7.322;2024-03-02T04:31:39;97443.47;;;8.45;60.83
21594;BME280;10959;51.328;7.322;2024-03-02T04:34:05;97439.41;;;8.48;60.73
21594;BME280;10959;51.328;7.322;2024-03-02T04:36:32;97440.22;;;8.43;61.07
21594;BME280;10959;51.328;7.322;2024-03-02T04:38:59;97440.75;;;8.45;61.13
21594;BME280;10959;51.328;7.322;2024-03-02T04:41:26;97431.59;;;8.46;61.09
21594;BME280;10959;51.328;7.322;2024-03-02T04:43:53;97436.16;;;8.51;60.87
21594;BME280;10959;51.328;7.322;2024-03-02T04:46:19;97441.28;;;8.47;60.98
21594;BME280;10959;51.328;7.322;2024-03-02T04:48:45;97436.44;;;8.44;60.91
21594;BME280;10959;51.328;7.322;2024-03-02T04:51:13;97445.06;;;8.46;60.79
21594;BME280;10959;51.328;7.322;2024-03-02T04:53:40;97454.50;;;8.39;61.27
21594;BME280;10959;51.328;7.322;2024-03-02T04:56:08;97455.59;;;8.43;60.84
21594;BME280;10959;51.328;7.322;2024-03-02T04:59:04;97460.16;;;8.47;60.78
21594;BME280;10959;51.328;7.322;2024-03-02T05:01:30;97469.84;;;8.48;61.03
21594;BME280;10959;51.328;7.322;2024-03-02T05:03:57;97474.44;;;8.48;60.70
21594;BME280;10959;51.328;7.322;2024-03-02T05:06:23;97468.50;;;8.41;60.93
21594;BME280;10959;51.328;7.322;2024-03-02T05:08:50;97466.59;;;8.46;61.21
21594;BME280;10959;51.328;7.322;2024-03-02T05:11:17;97467.44;;;8.42;61.05
21594;BME280;10959;51.328;7.322;2024-03-02T05:14:18;97483.84;;;8.40;61.14
21594;BME280;10959;51.328;7.322;2024-03-02T05:16:44;97486.00;;;8.38;60.73
21594;BME280;10959;51.328;7.322;2024-03-02T05:19:11;97488.44;;;8.40;61.10
21594;BME280;10959;51.328;7.322;2024-03-02T05:21:37;97492.75;;;8.36;60.88
21594;BME280;10959;51.328;7.322;2024-03-02T05:24:04;97496.25;;;8.31;61.26
21594;BME280;10959;51.328;7.322;2024-03-02T05:26:32;97489.78;;;8.32;61.28
21594;BME280;10959;51.328;7.322;2024-03-02T05:28:58;97491.38;;;8.28;61.03
21594;BME280;10959;51.328;7.322;2024-03-02T05:31:25;97495.13;;;8.22;61.47
21594;BME280;10959;51.328;7.322;2024-03-02T05:33:51;97489.75;;;8.17;61.59
21594;BME280;10959;51.328;7.322;2024-03-02T05:36:18;97491.34;;;8.13;61.54
21594;BME280;10959;51.328;7.322;2024-03-02T05:38:45;97492.44;;;8.07;61.55
21594;BME280;10959;51.328;7.322;2024-03-02T05:41:12;97498.38;;;8.09;61.67
21594;BME280;10959;51.328;7.322;2024-03-02T05:43:40;97500.25;;;8.08;61.43
21594;BME280;10959;51.328;7.322;2024-03-02T05:46:06;97501.59;;;8.11;61.55
21594;BME280;10959;51.328;7.322;2024-03-02T05:48:32;97496.22;;;8.11;61.58
21594;BME280;10959;51.328;7.322;2024-03-02T05:50:59;97497.56;;;8.08;61.56
21594;BME280;10959;51.328;7.322;2024-03-02T05:53:26;97499.44;;;8.08;61.33
21594;BME280;10959;51.328;7.322;2024-03-02T05:55:52;97497.00;;;8.01;61.86
21594;BME280;10959;51.328;7.322;2024-03-02T05:58:21;97501.56;;;8.01;61.72
21594;BME280;10959;51.328;7.322;2024-03-02T06:00:59;97488.41;;;7.99;61.85
21594;BME280;10959;51.328;7.322;2024-03-02T06:03:25;97483.81;;;8.00;61.95
21594;BME280;10959;51.328;7.322;2024-03-02T06:05:53;97484.88;;;7.99;61.62
21594;BME280;10959;51.328;7.322;2024-03-02T06:08:20;97478.16;;;7.96;61.93
21594;BME280;10959;51.328;7.322;2024-03-02T06:10:46;97482.72;;;7.96;62.11
21594;BME280;10959;51.328;7.322;2024-03-02T06:13:13;97478.94;;;7.92;61.86
21594;BME280;10959;51.328;7.322;2024-03-02T06:15:39;97480.56;;;7.88;62.20
21594;BME280;10959;51.328;7.322;2024-03-02T06:18:07;97480.56;;;7.88;62.02
21594;BME280;10959;51.328;7.322;2024-03-02T06:20:34;97481.63;;;7.92;62.03
21594;BME280;10959;51.328;7.322;2024-03-02T06:23:00;97487.56;;;7.89;62.41
21594;BME280;10959;51.328;7.322;2024-03-02T06:25:27;97482.19;;;7.84;62.36
21594;BME280;10959;51.328;7.322;2024-03-02T06:27:53;97489.44;;;7.83;62.36
21594;BME280;10959;51.328;7.322;2024-03-02T06:30:20;97483.78;;;7.80;62.67
21594;BME280;10959;51.328;7.322;2024-03-02T06:32:46;97498.84;;;7.81;62.71
21594;BME280;10959;51.328;7.322;2024-03-02T06:35:14;97498.84;;;7.86;62.33
21594;BME280;10959;51.328;7.322;2024-03-02T06:37:40;97500.47;;;7.82;62.87
21594;BME280;10959;51.328;7.322;2024-03-02T06:40:08;97504.78;;;7.83;62.64
21594;BME280;10959;51.328;7.322;2024-03-02T06:42:35;97512.88;;;7.88;62.71
21594;BME280;10959;51.328;7.322;2024-03-02T06:45:02;97510.19;;;7.93;62.76
21594;BME280;10959;51.328;7.322;2024-03-02T06:47:29;97517.72;;;8.01;62.51
21594;BME280;10959;51.328;7.322;2024-03-02T06:49:55;97512.09;;;8.02;62.45
21594;BME280;10959;51.328;7.322;2024-03-02T06:52:24;97515.88;;;8.06;62.23
21594;BME280;10959;51.328;7.322;2024-03-02T06:54:51;97523.09;;;8.01;62.43
21594;BME280;10959;51.328;7.322;2024-03-02T06:57:17;97523.41;;;8.09;62.62
21594;BME280;10959;51.328;7.322;2024-03-02T06:59:45;97524.75;;;8.22;62.42
21594;BME280;10959;51.328;7.322;2024-03-02T07:02:12;97511.31;;;8.37;62.17
21594;BME280;10959;51.328;7.322;2024-03-02T07:04:38;97514.03;;;8.42;62.22
21594;BME280;10959;51.328;7.322;2024-03-02T07:07:05;97513.22;;;8.57;61.67
21594;BME280;10959;51.328;7.322;2024-03-02T07:09:33;97518.06;;;8.65;61.32
21594;BME280;10959;51.328;7.322;2024-03-02T07:11:59;97521.81;;;8.74;61.31
21594;BME280;10959;51.328;7.322;2024-03-02T07:14:26;97513.72;;;8.84;60.86
21594;BME280;10959;51.328;7.322;2024-03-02T07:17:13;97517.19;;;8.95;60.58
21594;BME280;10959;51.328;7.322;2024-03-02T07:19:39;97530.09;;;9.13;60.64
21594;BME280;10959;51.328;7.322;2024-03-02T07:22:06;97523.59;;;9.19;60.29
21594;BME280;10959;51.328;7.322;2024-03-02T07:24:39;97521.19;;;9.22;59.91
21594;BME280;10959;51.328;7.322;2024-03-02T07:27:05;97529.56;;;9.21;59.93
21594;BME280;10959;51.328;7.322;2024-03-02T07:29:32;97526.59;;;9.17;59.81
21594;BME280;10959;51.328;7.322;2024-03-02T07:31:58;97532.50;;;9.24;60.08
21594;BME280;10959;51.328;7.322;2024-03-02T07:34:25;97540.28;;;9.31;59.95
21594;BME280;10959;51.328;7.322;2024-03-02T07:36:51;97529.78;;;9.40;59.74
21594;BME280;10959;51.328;7.322;2024-03-02T07:39:18;97535.66;;;9.52;59.49
21594;BME280;10959;51.328;7.322;2024-03-02T07:41:46;97537.44;;;9.71;59.15
21594;BME280;10959;51.328;7.322;2024-03-02T07:44:13;97533.91;;;9.81;58.80
21594;BME280;10959;51.328;7.322;2024-03-02T07:46:40;97539.72;;;10.03;58.97
21594;BME280;10959;51.328;7.322;2024-03-02T07:49:07;97537.50;;;10.10;58.61
21594;BME280;10959;51.328;7.322;2024-03-02T07:51:34;97546.38;;;10.21;57.75
21594;BME280;10959;51.328;7.322;2024-03-02T07:54:00;97546.28;;;10.36;57.67
21594;BME280;10959;51.328;7.322;2024-03-02T07:56:27;97559.69;;;10.51;57.11
21594;BME280;10959;51.328;7.322;2024-03-02T07:58:54;97554.03;;;10.48;57.47
21594;BME280;10959;51.328;7.322;2024-03-02T08:01:22;97559.91;;;10.55;57.03
21594;BME280;10959;51.328;7.322;2024-03-02T08:03:49;97554.16;;;10.66;57.11
21594;BME280;10959;51.328;7.322;2024-03-02T08:06:16;97565.06;;;10.85;56.84
21594;BME280;10959;51.328;7.322;2024-03-02T08:08:42;97563.09;;;10.95;56.41
21594;BME280;10959;51.328;7.322;2024-03-02T08:11:09;97550.38;;;10.96;55.75
21594;BME280;10959;51.328;7.322;2024-03-02T08:13:35;97561.91;;;11.07;56.00
21594;BME280;10959;51.328;7.322;2024-03-02T08:16:03;97565.50;;;11.26;55.78
21594;BME280;10959;51.328;7.322;2024-03-02T08:18:32;97559.41;;;11.39;55.49
21594;BME280;10959;51.328;7.322;2024-03-02T08:20:59;97555.41;;;11.55;55.29
21594;BME280;10959;51.328;7.322;2024-03-02T08:23:26;97551.63;;;11.56;54.16
21594;BME280;10959;51.328;7.322;2024-03-02T08:25:52;97558.09;;;11.60;54.26
21594;BME280;10959;51.328;7.322;2024-03-02T08:28:19;97550.38;;;11.72;54.20
21594;BME280;10959;51.328;7.322;2024-03-02T08:30:45;97565.34;;;11.88;54.24
21594;BME280;10959;51.328;7.322;2024-03-02T08:33:13;97569.94;;;11.88;54.05
21594;BME280;10959;51.328;7.322;2024-03-02T08:35:39;97557.88;;;11.80;54.24
21594;BME280;10959;51.328;7.322;2024-03-02T08:38:06;97565.06;;;11.90;54.26
21594;BME280;10959;51.328;7.322;2024-03-02T08:40:32;97569.47;;;12.04;54.06
21594;BME280;10959;51.328;7.322;2024-03-02T08:42:59;97566.47;;;12.25;53.78
21594;BME280;10959;51.328;7.322;2024-03-02T08:45:24;97566.69;;;12.47;53.16
21594;BME280;10959;51.328;7.322;2024-03-02T08:47:51;97563.16;;;12.65;53.21
21594;BME280;10959;51.328;7.322;2024-03-02T08:50:19;97566.81;;;12.74;52.30
21594;BME280;10959;51.328;7.322;2024-03-02T08:52:45;97570.34;;;12.37;52.75
21594;BME280;10959;51.328;7.322;2024-03-02T08:55:12;97572.13;;;12.47;52.90
21594;BME280;10959;51.328;7.322;2024-03-02T08:57:38;97573.56;;;12.58;53.14
21594;BME280;10959;51.328;7.322;2024-03-02T09:00:06;97575.53;;;12.71;52.15
21594;BME280;10959;51.328;7.322;2024-03-02T09:02:32;97574.03;;;12.79;52.11
21594;BME280;10959;51.328;7.322;2024-03-02T09:04:59;97583.53;;;12.81;51.77
21594;BME280;10959;51.328;7.322;2024-03-02T09:07:27;97577.88;;;12.78;51.96
21594;BME280;10959;51.328;7.322;2024-03-02T09:09:53;97578.94;;;12.95;52.36
21594;BME280;10959;51.328;7.322;2024-03-02T09:12:20;97582.25;;;13.25;51.59
21594;BME280;10959;51.328;7.322;2024-03-02T09:14:46;97586.31;;;13.41;51.33
21594;BME280;10959;51.328;7.322;2024-03-02T09:17:13;97576.34;;;13.50;51.21
21594;BME280;10959;51.328;7.322;2024-03-02T09:19:40;97580.66;;;13.51;50.46
21594;BME280;10959;51.328;7.322;2024-03-02T09:22:07;97580.78;;;13.59;50.74
21594;BME280;10959;51.328;7.322;2024-03-02T09:24:36;97587.00;;;13.60;50.67
21594;BME280;10959;51.328;7.322;2024-03-02T09:27:03;97580.56;;;13.69;50.61
21594;BME280;10959;51.328;7.322;2024-03-02T09:29:29;97577.47;;;13.76;50.23
21594;BME280;10959;51.328;7.322;2024-03-02T09:31:56;97573.13;;;13.75;49.38
21594;BME280;10959;51.328;7.322;2024-03-02T09:34:22;97574.44;;;13.64;49.63
21594;BME280;10959;51.328;7.322;2024-03-02T09:36:50;97566.00;;;13.65;50.10
21594;BME280;10959;51.328;7.322;2024-03-02T09:39:17;97566.78;;;13.80;50.55
21594;BME280;10959;51.328;7.322;2024-03-02T09:41:45;97557.84;;;13.93;49.38
21594;BME280;10959;51.328;7.322;2024-03-02T09:44:12;97563.38;;;14.01;50.34
21594;BME280;10959;51.328;7.322;2024-03-02T09:46:38;97558.47;;;14.25;49.69
21594;BME280;10959;51.328;7.322;2024-03-02T09:49:05;97574.78;;;14.39;49.40
21594;BME280;10959;51.328;7.322;2024-03-02T09:51:32;97573.75;;;14.49;49.23
21594;BME280;10959;51.328;7.322;2024-03-02T09:54:00;97570.66;;;14.64;49.21
21594;BME280;10959;51.328;7.322;2024-03-02T09:56:27;97583.09;;;14.78;49.43
21594;BME280;10959;51.328;7.322;2024-03-02T09:58:55;97572.28;;;14.65;47.73
21594;BME280;10959;51.328;7.322;2024-03-02T10:01:21;97565.38;;;14.59;47.85
21594;BME280;10959;51.328;7.322;2024-03-02T10:03:48;97568.69;;;14.56;48.63
21594;BME280;10959;51.328;7.322;2024-03-02T10:06:20;97591.69;;;14.72;48.61
21594;BME280;10959;51.328;7.322;2024-03-02T10:08:47;97581.06;;;14.84;48.72
21594;BME280;10959;51.328;7.322;2024-03-02T10:11:26;97567.69;;;14.96;48.63
21594;BME280;10959;51.328;7.322;2024-03-02T10:14:05;97568.31;;;15.15;48.06
21594;BME280;10959;51.328;7.322;2024-03-02T10:16:33;97574.22;;;15.39;47.63
21594;BME280;10959;51.328;7.322;2024-03-02T10:19:15;97576.44;;;15.37;47.49
21594;BME280;10959;51.328;7.322;2024-03-02T10:21:41;97572.09;;;15.36;47.15
21594;BME280;10959;51.328;7.322;2024-03-02T10:24:08;97573.81;;;15.55;47.74
21594;BME280;10959;51.328;7.322;2024-03-02T10:26:34;97566.66;;;15.59;46.76
21594;BME280;10959;51.328;7.322;2024-03-02T10:29:01;97574.03;;;15.67;46.96
21594;BME280;10959;51.328;7.322;2024-03-02T10:31:29;97570.06;;;15.73;46.06
21594;BME280;10959;51.328;7.322;2024-03-02T10:33:55;97577.69;;;15.62;46.34
21594;BME280;10959;51.328;7.322;2024-03-02T10:36:22;97572.47;;;15.44;44.58
21594;BME280;10959;51.328;7.322;2024-03-02T10:38:51;97579.28;;;15.32;45.57
21594;BME280;10959;51.328;7.322;2024-03-02T10:41:23;97569.94;;;15.16;45.13
21594;BME280;10959;51.328;7.322;2024-03-02T10:43:51;97573.63;;;15.20;46.30
21594;BME280;10959;51.328;7.322;2024-03-02T10:46:20;97565.34;;;15.25;46.09
21594;BME280;10959;51.328;7.322;2024-03-02T10:48:50;97568.63;;;15.45;45.57
21594;BME280;10959;51.328;7.322;2024-03-02T10:51:16;97568.31;;;15.46;45.28
21594;BME280;10959;51.328;7.322;2024-03-02T10:53:43;97575.63;;;15.37;45.07
21594;BME280;10959;51.328;7.322;2024-03-02T10:56:10;97566.50;;;15.42;45.55
21594;BME280;10959;51.328;7.322;2024-03-02T10:58:42;97558.00;;;15.65;45.43
21594;BME280;10959;51.328;7.322;2024-03-02T11:01:10;97556.44;;;15.73;45.16
21594;BME280;10959;51.328;7.322;2024-03-02T11:03:38;97556.00;;;15.88;45.98
21594;BME280;10959;51.328;7.322;2024-03-02T11:06:08;97559.09;;;16.12;45.35
21594;BME280;10959;51.328;7.322;2024-03-02T11:08:38;97552.84;;;16.20;44.05
21594;BME280;10959;51.328;7.322;2024-03-02T11:11:07;97541.47;;;16.18;44.89
21594;BME280;10959;51.328;7.322;2024-03-02T11:13:36;97541.63;;;16.39;45.20
21594;BME280;10959;51.328;7.322;2024-03-02T11:16:08;97538.47;;;16.63;45.10
21594;BME280;10959;51.328;7.322;2024-03-02T11:18:36;97546.47;;;16.85;44.48
21594;BME280;10959;51.328;7.322;2024-03-02T11:21:04;97536.81;;;16.96;44.22
21594;BME280;10959;51.328;7.322;2024-03-02T11:23:33;97535.84;;;17.09;44.38
21594;BME280;10959;51.328;7.322;2024-03-02T11:26:18;97538.69;;;17.21;44.83
21594;BME280;10959;51.328;7.322;2024-03-02T11:28:44;97542.06;;;17.27;43.43
21594;BME280;10959;51.328;7.322;2024-03-02T11:31:11;97539.94;;;17.32;43.22
21594;BME280;10959;51.328;7.322;2024-03-02T11:33:38;97536.44;;;17.23;42.55
21594;BME280;10959;51.328;7.322;2024-03-02T11:36:06;97535.00;;;17.17;43.19
21594;BME280;10959;51.328;7.322;2024-03-02T11:38:35;97536.50;;;17.06;43.11
21594;BME280;10959;51.328;7.322;2024-03-02T11:41:03;97540.19;;;16.93;42.96
21594;BME280;10959;51.328;7.322;2024-03-02T11:43:32;97537.31;;;16.81;43.56
21594;BME280;10959;51.328;7.322;2024-03-02T11:45:59;97540.03;;;16.89;43.50
21594;BME280;10959;51.328;7.322;2024-03-02T11:48:29;97528.81;;;16.91;43.02
21594;BME280;10959;51.328;7.322;2024-03-02T11:50:58;97544.84;;;17.01;43.87
21594;BME280;10959;51.328;7.322;2024-03-02T11:53:26;97541.13;;;17.06;44.29
21594;BME280;10959;51.328;7.322;2024-03-02T11:55:55;97538.88;;;17.16;43.04
21594;BME280;10959;51.328;7.322;2024-03-02T11:58:22;97534.72;;;17.01;41.48
21594;BME280;10959;51.328;7.322;2024-03-02T12:00:50;97534.22;;;17.08;43.85
21594;BME280;10959;51.328;7.322;2024-03-02T12:03:17;97523.28;;;17.25;43.85
21594;BME280;10959;51.328;7.322;2024-03-02T12:05:43;97518.88;;;17.33;42.95
21594;BME280;10959;51.328;7.322;2024-03-02T12:08:11;97521.44;;;17.46;43.60
21594;BME280;10959;51.328;7.322;2024-03-02T12:10:39;97515.97;;;17.46;42.59
21594;BME280;10959;51.328;7.322;2024-03-02T12:13:07;97527.44;;;17.31;42.96
21594;BME280;10959;51.328;7.322;2024-03-02T12:15:37;97521.06;;;17.10;43.44
21594;BME280;10959;51.328;7.322;2024-03-02T12:18:06;97518.84;;;16.86;42.47
21594;BME280;10959;51.328;7.322;2024-03-02T12:20:33;97523.19;;;16.53;43.46
21594;BME280;10959;51.328;7.322;2024-03-02T12:23:01;97525.97;;;16.62;43.66
21594;BME280;10959;51.328;7.322;2024-03-02T12:25:30;97526.53;;;16.50;44.26
21594;BME280;10959;51.328;7.322;2024-03-02T12:27:59;97520.16;;;16.55;44.83
21594;BME280;10959;51.328;7.322;2024-03-02T12:30:29;97520.78;;;16.52;43.75
21594;BME280;10959;51.328;7.322;2024-03-02T12:32:56;97518.53;;;16.28;44.04
21594;BME280;10959;51.328;7.322;2024-03-02T12:35:24;97522.84;;;16.20;45.00
21594;BME280;10959;51.328;7.322;2024-03-02T12:37:52;97512.09;;;16.15;44.70
21594;BME280;10959;51.328;7.322;2024-03-02T12:40:20;97516.09;;;16.18;44.74
21594;BME280;10959;51.328;7.322;2024-03-02T12:42:48;97512.91;;;16.24;44.79
21594;BME280;10959;51.328;7.322;2024-03-02T12:45:16;97508.56;;;16.32;45.52
21594;BME280;10959;51.328;7.322;2024-03-02T12:47:50;97523.81;;;16.16;44.50
21594;BME280;10959;51.328;7.322;2024-03-02T12:50:17;97521.56;;;16.01;44.25
21594;BME280;10959;51.328;7.322;2024-03-02T12:52:43;97515.91;;;15.88;44.91
21594;BME280;10959;51.328;7.322;2024-03-02T12:55:10;97499.84;;;15.78;45.12
21594;BME280;10959;51.328;7.322;2024-03-02T12:57:36;97502.84;;;15.68;44.27
21594;BME280;10959;51.328;7.322;2024-03-02T13:00:04;97509.13;;;15.69;44.56
21594;BME280;10959;51.328;7.322;2024-03-02T13:02:34;97512.63;;;15.61;44.37
21594;BME280;10959;51.328;7.322;2024-03-02T13:05:03;97499.78;;;15.53;45.42
21594;BME280;10959;51.328;7.322;2024-03-02T13:07:29;97502.81;;;15.51;45.46
21594;BME280;10959;51.328;7.322;2024-03-02T13:09:56;97497.72;;;15.58;45.22